Time;durP1;ratioP1;P1;durP2;ratioP2;P2;SDS_P1;SDS_P2;PMS_P1;PMS_P2;Temp;Humidity;BMP_temperature;BMP_pressure;BME280_temperature;BME280_humidity;BME280_pressure;Samples;Min_cycle;Max_cycle;Signal;HPM_P1;HPM_P2
2023/08/05 00:00:46;;;;;;;6.35;3.00;;;14.70;99.90;;;;;;5041935;28;20044;-76
2023/08/05 00:03:12;;;;;;;6.95;2.90;;;14.70;99.90;;;;;;5030509;28;20041;-77
2023/08/05 00:05:37;;;;;;;5.40;2.88;;;14.70;99.90;;;;;;4998685;28;20128;-76
2023/08/05 00:08:06;;;;;;;6.55;2.92;;;14.70;99.90;;;;;;4998798;28;20050;-76
2023/08/05 00:10:32;;;;;;;7.32;2.75;;;14.70;99.90;;;;;;5016498;28;20077;-77
2023/08/05 00:12:57;;;;;;;6.97;2.90;;;14.70;99.90;;;;;;5015138;28;20124;-76
2023/08/05 00:15:23;;;;;;;7.75;3.20;;;14.70;99.90;;;;;;5003151;28;20099;-77
2023/08/05 00:17:48;;;;;;;6.32;2.80;;;14.70;99.90;;;;;;5034847;28;20038;-76
2023/08/05 00:20:14;;;;;;;6.55;3.20;;;14.70;99.90;;;;;;5034678;28;20041;-76
2023/08/05 00:22:40;;;;;;;7.80;3.17;;;14.70;99.90;;;;;;5010144;28;20064;-76
2023/08/05 00:25:06;;;;;;;6.45;2.83;;;14.70;99.90;;;;;;5017651;28;20120;-76
2023/08/05 00:27:31;;;;;;;7.00;3.22;;;14.70;99.90;;;;;;5017740;28;20061;-76
2023/08/05 00:29:57;;;;;;;7.25;3.20;;;14.60;99.90;;;;;;5033277;28;20033;-77
2023/08/05 00:32:22;;;;;;;6.47;3.33;;;14.60;99.90;;;;;;5032417;28;20046;-76
2023/08/05 00:34:48;;;;;;;7.63;3.33;;;14.60;99.90;;;;;;5001954;28;20121;-76
2023/08/05 00:37:14;;;;;;;6.70;3.20;;;14.60;99.90;;;;;;4998532;28;20042;-77
2023/08/05 00:39:39;;;;;;;8.25;3.30;;;14.60;99.90;;;;;;5014766;28;20503;-76
2023/08/05 00:42:05;;;;;;;9.48;3.20;;;14.70;99.90;;;;;;4998389;28;20404;-76
2023/08/05 00:44:31;;;;;;;7.45;3.67;;;14.70;99.90;;;;;;4998228;28;20042;-76
2023/08/05 00:46:57;;;;;;;7.72;3.40;;;14.70;99.90;;;;;;5029025;28;20544;-76
2023/08/05 00:49:23;;;;;;;9.35;3.63;;;14.70;99.90;;;;;;5034190;28;20187;-76
2023/08/05 00:51:49;;;;;;;7.20;3.85;;;14.70;99.90;;;;;;5033623;28;20041;-76
2023/08/05 00:54:15;;;;;;;9.35;3.92;;;14.70;99.90;;;;;;5024458;28;20038;-76
2023/08/05 00:56:42;;;;;;;7.28;3.63;;;14.60;99.90;;;;;;4997683;28;20490;-76
2023/08/05 00:59:09;;;;;;;7.43;3.53;;;14.60;99.90;;;;;;5013470;28;20034;-76
2023/08/05 01:01:34;;;;;;;8.20;3.55;;;14.60;99.90;;;;;;5005477;28;20046;-77
2023/08/05 01:04:00;;;;;;;7.43;3.60;;;14.70;99.90;;;;;;5022181;28;20053;-77
2023/08/05 01:06:26;;;;;;;7.28;3.13;;;14.60;99.90;;;;;;5023954;28;20067;-77
2023/08/05 01:08:53;;;;;;;7.00;3.17;;;14.60;99.90;;;;;;5034044;28;20041;-77
2023/08/05 01:11:19;;;;;;;6.63;3.40;;;14.60;99.90;;;;;;5016820;28;20436;-77
2023/08/05 01:13:45;;;;;;;6.93;3.28;;;14.60;99.90;;;;;;5024467;28;20046;-77
2023/08/05 01:16:10;;;;;;;8.98;3.50;;;14.60;99.90;;;;;;5019420;28;20520;-76
2023/08/05 01:18:38;;;;;;;8.23;3.38;;;14.60;99.90;;;;;;5017078;28;20037;-76
2023/08/05 01:21:21;;;;;;;6.15;2.95;;;14.60;99.90;;;;;;5013345;28;20045;-76
2023/08/05 01:24:19;;;;;;;8.68;3.38;;;14.50;99.90;;;;;;5024284;28;20041;-76
2023/08/05 01:26:46;;;;;;;8.48;3.53;;;14.50;99.90;;;;;;5010311;28;20077;-76
2023/08/05 01:29:11;;;;;;;7.80;3.67;;;14.50;99.90;;;;;;5012179;28;20033;-76
2023/08/05 01:31:37;;;;;;;11.50;3.95;;;14.50;99.90;;;;;;5030657;28;20501;-76
2023/08/05 01:34:04;;;;;;;7.63;3.50;;;14.50;99.90;;;;;;5006134;28;20045;-77
2023/08/05 01:36:31;;;;;;;8.55;3.90;;;14.50;99.90;;;;;;5013177;28;20029;-77
2023/08/05 01:38:57;;;;;;;8.38;3.47;;;14.50;99.90;;;;;;5008948;28;20038;-76
2023/08/05 01:41:23;;;;;;;7.57;3.70;;;14.50;99.90;;;;;;5027196;28;20044;-76
2023/08/05 01:43:48;;;;;;;8.40;3.95;;;14.50;99.90;;;;;;5024153;28;20037;-77
2023/08/05 01:46:14;;;;;;;7.88;3.60;;;14.50;99.90;;;;;;5018601;28;20037;-77
2023/08/05 01:48:39;;;;;;;9.43;3.80;;;14.50;99.90;;;;;;5004082;28;20406;-77
2023/08/05 01:51:05;;;;;;;6.25;3.47;;;14.50;99.90;;;;;;5031700;28;20045;-77
2023/08/05 01:53:31;;;;;;;8.05;3.80;;;14.50;99.90;;;;;;5029044;28;20069;-77
2023/08/05 01:55:56;;;;;;;6.30;3.60;;;14.50;99.90;;;;;;5013604;28;20049;-77
2023/08/05 01:58:22;;;;;;;7.38;3.63;;;14.50;99.90;;;;;;4999589;28;20041;-77
2023/08/05 02:00:52;;;;;;;9.95;4.03;;;14.50;99.90;;;;;;5010452;28;20061;-76
2023/08/05 02:03:17;;;;;;;10.18;4.05;;;14.40;99.90;;;;;;5030970;28;20528;-76
2023/08/05 02:05:43;;;;;;;8.73;3.85;;;14.30;99.90;;;;;;5015643;28;20053;-77
2023/08/05 02:08:09;;;;;;;9.18;4.43;;;14.30;99.90;;;;;;4997989;28;20486;-77
2023/08/05 02:10:34;;;;;;;7.88;3.97;;;14.10;99.90;;;;;;5024448;28;20034;-77
2023/08/05 02:13:00;;;;;;;9.40;4.03;;;13.80;99.90;;;;;;5015374;28;20047;-78
2023/08/05 02:15:29;;;;;;;8.27;3.70;;;13.70;99.90;;;;;;5022418;28;20037;-77
2023/08/05 02:17:54;;;;;;;11.52;4.90;;;13.80;99.90;;;;;;5030951;28;20064;-76
2023/08/05 02:20:20;;;;;;;7.57;3.53;;;13.80;99.90;;;;;;5024389;28;20049;-77
2023/08/05 02:22:45;;;;;;;7.35;3.90;;;13.80;99.90;;;;;;5006437;28;20075;-77
2023/08/05 02:25:11;;;;;;;6.72;3.60;;;13.80;99.90;;;;;;5012642;28;20049;-77
2023/08/05 02:27:36;;;;;;;8.55;3.72;;;13.90;99.90;;;;;;5015408;28;20133;-77
2023/08/05 02:30:02;;;;;;;7.75;3.33;;;13.90;99.90;;;;;;5014891;28;20046;-77
2023/08/05 02:32:28;;;;;;;7.70;3.28;;;13.90;99.90;;;;;;5029253;28;20478;-76
2023/08/05 02:34:53;;;;;;;10.18;3.88;;;14.00;99.90;;;;;;5023753;28;20490;-76
2023/08/05 02:37:19;;;;;;;7.47;3.20;;;14.00;99.90;;;;;;5000779;28;20038;-76
2023/08/05 02:39:45;;;;;;;8.52;3.78;;;14.00;99.90;;;;;;5047011;28;20037;-76
2023/08/05 02:42:10;;;;;;;6.93;3.53;;;14.00;99.90;;;;;;5025576;28;20378;-76
2023/08/05 02:44:36;;;;;;;7.75;3.42;;;14.00;99.90;;;;;;5012204;28;20072;-76
2023/08/05 02:47:01;;;;;;;6.60;3.17;;;14.00;99.90;;;;;;5021863;28;20517;-77
2023/08/05 02:49:28;;;;;;;7.90;3.53;;;13.90;99.90;;;;;;5013063;28;20433;-76
2023/08/05 02:51:53;;;;;;;6.93;3.35;;;14.00;99.90;;;;;;5026947;28;20037;-77
2023/08/05 02:54:19;;;;;;;7.38;3.13;;;14.00;99.90;;;;;;5012259;28;20038;-76
2023/08/05 02:56:45;;;;;;;8.63;3.88;;;13.90;99.90;;;;;;5020099;28;20116;-76
2023/08/05 02:59:11;;;;;;;8.25;3.50;;;13.90;99.90;;;;;;5031399;28;20048;-76
2023/08/05 03:01:36;;;;;;;9.73;3.85;;;13.90;99.90;;;;;;5024935;28;20030;-76
2023/08/05 03:04:02;;;;;;;7.22;3.60;;;13.80;99.90;;;;;;5000318;28;20521;-76
2023/08/05 03:06:28;;;;;;;6.18;3.10;;;13.70;99.90;;;;;;5002359;28;20050;-77
2023/08/05 03:08:53;;;;;;;7.40;3.25;;;13.60;99.90;;;;;;4997582;28;20042;-77
2023/08/05 03:11:20;;;;;;;8.40;3.70;;;13.60;99.90;;;;;;5010546;28;20045;-76
2023/08/05 03:13:45;;;;;;;7.43;3.25;;;13.60;99.90;;;;;;5014644;28;20080;-76
2023/08/05 03:16:12;;;;;;;7.28;3.78;;;13.60;99.90;;;;;;5027621;28;20070;-77
2023/08/05 03:18:37;;;;;;;8.05;3.65;;;13.60;99.90;;;;;;5026878;28;20038;-77
2023/08/05 03:21:03;;;;;;;7.28;3.50;;;13.60;99.90;;;;;;5016702;28;20091;-76
2023/08/05 03:23:29;;;;;;;10.23;3.72;;;13.50;99.90;;;;;;5016705;28;20103;-76
2023/08/05 03:25:55;;;;;;;7.63;3.70;;;13.50;99.90;;;;;;5018514;28;20072;-76
2023/08/05 03:28:21;;;;;;;10.13;4.13;;;13.40;99.90;;;;;;5014647;28;20077;-76
2023/08/05 03:30:46;;;;;;;8.20;3.80;;;13.30;99.90;;;;;;5033175;28;20513;-76
2023/08/05 03:33:12;;;;;;;7.88;3.70;;;13.30;99.90;;;;;;5021147;28;20068;-77
2023/08/05 03:35:44;;;;;;;9.80;3.97;;;13.30;99.90;;;;;;5033670;28;20547;-77
2023/08/05 03:38:10;;;;;;;7.32;4.00;;;13.30;99.90;;;;;;5014489;28;20124;-77
2023/08/05 03:40:36;;;;;;;8.05;3.83;;;13.30;99.90;;;;;;5008184;28;20124;-76
2023/08/05 03:43:02;;;;;;;8.13;3.85;;;13.30;99.90;;;;;;5030470;28;21715;-76
2023/08/05 03:45:28;;;;;;;9.07;3.83;;;13.40;99.90;;;;;;5013429;28;20041;-76
2023/08/05 03:47:55;;;;;;;8.13;3.95;;;13.30;99.90;;;;;;5003091;28;20088;-77
2023/08/05 03:50:21;;;;;;;9.27;3.50;;;13.30;99.90;;;;;;5045440;28;20046;-77
2023/08/05 03:52:49;;;;;;;6.18;3.50;;;13.20;99.90;;;;;;5015647;28;20045;-76
2023/08/05 03:55:16;;;;;;;6.20;3.58;;;13.20;99.90;;;;;;4998716;28;20038;-76
2023/08/05 03:57:41;;;;;;;8.18;3.83;;;13.30;99.90;;;;;;5017706;28;20045;-77
2023/08/05 04:00:11;;;;;;;7.65;3.75;;;13.30;99.90;;;;;;5021239;28;20037;-76
2023/08/05 04:02:37;;;;;;;7.10;3.90;;;13.30;99.90;;;;;;5007330;28;20041;-76
2023/08/05 04:05:04;;;;;;;11.73;4.03;;;13.30;99.90;;;;;;5015359;28;20518;-77
2023/08/05 04:07:30;;;;;;;8.57;3.72;;;13.40;99.90;;;;;;5017881;28;20489;-77
2023/08/05 04:09:56;;;;;;;10.23;4.78;;;13.40;99.90;;;;;;5014720;28;20038;-76
2023/08/05 04:12:21;;;;;;;9.35;4.55;;;13.50;99.90;;;;;;5021847;28;20044;-77
2023/08/05 04:14:50;;;;;;;10.50;4.38;;;13.40;99.90;;;;;;5033990;28;20048;-77
2023/08/05 04:17:15;;;;;;;10.32;4.90;;;13.50;99.90;;;;;;5020838;28;20487;-77
2023/08/05 04:19:42;;;;;;;10.18;4.60;;;13.40;99.90;;;;;;5016885;28;20053;-76
2023/08/05 04:22:07;;;;;;;7.88;4.07;;;13.40;99.90;;;;;;5032104;28;20045;-76
2023/08/05 04:24:34;;;;;;;7.82;4.40;;;13.40;99.90;;;;;;5016557;28;20033;-76
2023/08/05 04:27:00;;;;;;;8.73;4.13;;;13.40;99.90;;;;;;4998325;28;20061;-76
2023/08/05 04:29:25;;;;;;;10.10;5.10;;;13.50;99.90;;;;;;5018129;28;20041;-76
2023/08/05 04:31:54;;;;;;;8.60;4.57;;;13.50;99.90;;;;;;4998496;28;20038;-76
2023/08/05 04:34:20;;;;;;;7.82;3.83;;;13.60;99.90;;;;;;5021422;28;20102;-76
2023/08/05 04:36:50;;;;;;;7.57;4.13;;;13.60;99.90;;;;;;5015232;28;20080;-76
2023/08/05 04:39:17;;;;;;;7.75;4.07;;;13.60;99.90;;;;;;5031281;28;20087;-76
2023/08/05 04:41:44;;;;;;;7.82;4.18;;;13.60;99.90;;;;;;5033141;28;20099;-76
2023/08/05 04:44:10;;;;;;;9.65;4.20;;;13.70;99.90;;;;;;5029624;28;20045;-76
2023/08/05 04:46:36;;;;;;;8.82;4.93;;;13.70;99.90;;;;;;5029280;28;20041;-76
2023/08/05 04:49:01;;;;;;;9.68;4.38;;;13.70;99.90;;;;;;5030788;28;20132;-76
2023/08/05 04:51:27;;;;;;;8.32;4.47;;;13.70;99.90;;;;;;5015667;28;20038;-77
2023/08/05 04:53:52;;;;;;;10.30;4.43;;;13.70;99.90;;;;;;5017353;28;20065;-77
2023/08/05 04:56:24;;;;;;;7.72;3.90;;;13.70;99.90;;;;;;5029871;28;20494;-77
2023/08/05 04:58:50;;;;;;;6.82;3.90;;;13.80;99.90;;;;;;5000274;28;20041;-77
2023/08/05 05:01:15;;;;;;;7.70;3.80;;;13.80;99.90;;;;;;5012091;28;20032;-77
2023/08/05 05:03:41;;;;;;;7.97;3.70;;;13.80;99.90;;;;;;5014731;28;20087;-77
2023/08/05 05:06:06;;;;;;;9.48;4.13;;;13.80;99.90;;;;;;5029993;28;20095;-77
2023/08/05 05:08:33;;;;;;;7.63;3.80;;;13.80;99.90;;;;;;5024874;28;20305;-77
2023/08/05 05:10:58;;;;;;;9.18;4.40;;;13.90;99.90;;;;;;5017418;28;20049;-77
2023/08/05 05:13:24;;;;;;;9.18;4.07;;;13.90;99.90;;;;;;5006389;28;20048;-77
2023/08/05 05:15:52;;;;;;;9.65;3.97;;;13.90;99.90;;;;;;5004763;28;20045;-76
2023/08/05 05:18:19;;;;;;;8.77;3.95;;;14.10;99.90;;;;;;5032058;28;20494;-76
2023/08/05 05:20:49;;;;;;;9.52;3.95;;;14.20;99.90;;;;;;5016325;28;20145;-76
2023/08/05 05:23:14;;;;;;;7.55;3.95;;;14.20;99.90;;;;;;5031182;28;20037;-76
2023/08/05 05:25:40;;;;;;;7.18;3.50;;;14.20;99.90;;;;;;5030050;28;20041;-76
2023/08/05 05:28:06;;;;;;;8.48;3.97;;;14.20;99.90;;;;;;5027513;28;20065;-76
2023/08/05 05:30:31;;;;;;;9.93;3.92;;;14.30;99.90;;;;;;5029895;28;20088;-76
2023/08/05 05:32:57;;;;;;;7.85;4.00;;;14.30;99.90;;;;;;5016906;28;20375;-76
2023/08/05 05:35:23;;;;;;;9.32;3.70;;;14.30;99.90;;;;;;5027353;28;20046;-76
2023/08/05 05:37:48;;;;;;;8.93;3.60;;;14.20;99.90;;;;;;5019494;28;20078;-76
2023/08/05 05:40:14;;;;;;;8.30;3.25;;;14.20;99.90;;;;;;5032086;28;20112;-77
2023/08/05 05:42:40;;;;;;;13.38;4.10;;;14.30;99.90;;;;;;5024103;28;20041;-76
2023/08/05 05:45:06;;;;;;;7.68;3.40;;;14.30;99.90;;;;;;5013916;28;20045;-76
2023/08/05 05:47:31;;;;;;;9.10;4.20;;;14.30;99.90;;;;;;5028584;28;20048;-76
2023/08/05 05:49:57;;;;;;;9.25;3.65;;;14.40;99.90;;;;;;5021605;28;20494;-76
2023/08/05 05:52:23;;;;;;;8.95;3.70;;;14.40;99.90;;;;;;4998545;28;20042;-76
2023/08/05 05:54:48;;;;;;;8.02;3.42;;;14.50;99.90;;;;;;5012661;28;20045;-76
2023/08/05 05:57:14;;;;;;;6.55;3.17;;;14.50;99.90;;;;;;5026365;28;20034;-76
2023/08/05 05:59:39;;;;;;;7.55;3.35;;;14.50;99.90;;;;;;5026763;28;20030;-77
2023/08/05 06:02:07;;;;;;;7.43;3.33;;;14.70;99.90;;;;;;5021776;28;20025;-77
2023/08/05 06:04:33;;;;;;;8.85;3.22;;;14.70;99.90;;;;;;5030038;28;20548;-76
2023/08/05 06:07:01;;;;;;;7.63;3.10;;;14.70;99.90;;;;;;5029907;28;20068;-76
2023/08/05 06:09:27;;;;;;;8.38;3.10;;;14.80;99.90;;;;;;4997527;28;20038;-76
2023/08/05 06:11:53;;;;;;;6.72;2.92;;;14.80;99.90;;;;;;5017160;28;20064;-76
2023/08/05 06:14:20;;;;;;;7.97;3.10;;;14.80;99.90;;;;;;4999943;28;20037;-77
2023/08/05 06:16:46;;;;;;;8.15;3.60;;;14.90;99.90;;;;;;4996317;28;20042;-77
2023/08/05 06:19:11;;;;;;;7.40;3.20;;;14.90;99.90;;;;;;5019274;28;20038;-76
2023/08/05 06:21:37;;;;;;;6.05;2.95;;;14.90;99.90;;;;;;5015366;28;20037;-77
2023/08/05 06:24:03;;;;;;;9.13;3.20;;;15.00;99.90;;;;;;5023332;28;20072;-76
2023/08/05 06:26:29;;;;;;;7.43;3.40;;;15.20;99.90;;;;;;4996559;28;20061;-76
2023/08/05 06:28:54;;;;;;;8.45;3.42;;;15.20;99.90;;;;;;5012214;28;20054;-76
2023/08/05 06:31:20;;;;;;;6.18;2.78;;;15.40;99.90;;;;;;5014469;28;20123;-77
2023/08/05 06:33:46;;;;;;;6.35;2.85;;;15.50;99.90;;;;;;5012803;28;20494;-76
2023/08/05 06:36:11;;;;;;;7.40;3.03;;;15.50;99.90;;;;;;5012044;28;20057;-76
2023/08/05 06:38:37;;;;;;;9.13;2.92;;;15.50;99.90;;;;;;5012470;28;20042;-76
2023/08/05 06:41:03;;;;;;;6.82;2.70;;;15.50;99.90;;;;;;4997577;28;20041;-76
2023/08/05 06:43:28;;;;;;;6.68;3.40;;;15.60;99.90;;;;;;5002860;28;20077;-76
2023/08/05 06:45:54;;;;;;;8.18;2.83;;;15.80;99.90;;;;;;5032136;28;20045;-76
2023/08/05 06:48:20;;;;;;;5.65;2.70;;;15.90;99.90;;;;;;5014915;28;20045;-76
2023/08/05 06:50:45;;;;;;;9.65;2.60;;;16.00;99.90;;;;;;5019662;28;20386;-77
2023/08/05 06:53:11;;;;;;;6.55;2.47;;;16.10;99.90;;;;;;5012447;28;20124;-76
2023/08/05 06:55:36;;;;;;;7.38;2.65;;;16.30;99.90;;;;;;5029893;28;20045;-77
2023/08/05 06:58:02;;;;;;;8.10;2.53;;;16.60;99.90;;;;;;5033223;28;20041;-76
2023/08/05 07:00:28;;;;;;;6.97;2.50;;;16.50;99.90;;;;;;5029511;28;20036;-76
2023/08/05 07:02:53;;;;;;;6.43;2.53;;;16.40;99.90;;;;;;5031892;28;20045;-76
2023/08/05 07:05:19;;;;;;;7.30;2.60;;;16.30;99.90;;;;;;5000436;28;20040;-76
2023/08/05 07:07:44;;;;;;;8.35;3.08;;;16.30;99.90;;;;;;5012391;28;20050;-77
2023/08/05 07:10:11;;;;;;;5.43;2.20;;;16.30;99.90;;;;;;4995595;28;20052;-77
2023/08/05 07:12:37;;;;;;;5.68;2.35;;;16.40;99.90;;;;;;4995675;28;20038;-77
2023/08/05 07:15:04;;;;;;;6.72;2.50;;;16.50;99.90;;;;;;5016265;28;20125;-76
2023/08/05 07:17:29;;;;;;;5.47;2.42;;;16.40;99.90;;;;;;5012338;28;20084;-76
2023/08/05 07:19:55;;;;;;;7.07;2.42;;;16.50;99.90;;;;;;5012910;28;20038;-77
2023/08/05 07:22:20;;;;;;;6.30;2.53;;;16.60;99.90;;;;;;5017260;28;20045;-77
2023/08/05 07:24:46;;;;;;;7.28;2.55;;;16.50;99.90;;;;;;4997157;28;20099;-76
2023/08/05 07:27:12;;;;;;;7.00;2.45;;;16.40;99.90;;;;;;5014181;28;20045;-76
2023/08/05 07:29:41;;;;;;;6.80;2.67;;;16.30;99.90;;;;;;5023793;28;20052;-79
2023/08/05 07:32:07;;;;;;;5.40;2.38;;;16.40;99.90;;;;;;5005374;28;20038;-74
2023/08/05 07:34:33;;;;;;;7.78;3.00;;;16.50;99.90;;;;;;5013277;28;20038;-77
2023/08/05 07:36:59;;;;;;;8.23;2.67;;;16.50;99.90;;;;;;4996851;28;20401;-76
2023/08/05 07:39:28;;;;;;;7.57;2.92;;;16.50;99.90;;;;;;5014477;28;20069;-76
2023/08/05 07:41:54;;;;;;;6.07;2.88;;;16.60;99.90;;;;;;5014235;28;20041;-79
2023/08/05 07:44:19;;;;;;;5.50;2.70;;;16.60;99.90;;;;;;5014267;28;20036;-78
2023/08/05 07:46:47;;;;;;;6.15;2.55;;;16.70;99.90;;;;;;5015063;28;20041;-80
2023/08/05 07:49:13;;;;;;;6.30;2.53;;;16.90;99.90;;;;;;5012507;28;20513;-77
2023/08/05 07:51:39;;;;;;;6.50;2.65;;;17.20;99.90;;;;;;5031555;28;20044;-77
2023/08/05 07:54:05;;;;;;;7.47;2.80;;;17.40;99.90;;;;;;5028087;28;20080;-77
2023/08/05 07:56:33;;;;;;;5.95;2.60;;;17.50;99.90;;;;;;5022169;28;20486;-76
2023/08/05 07:58:58;;;;;;;7.47;2.70;;;17.50;99.90;;;;;;5012912;28;20544;-77
2023/08/05 08:01:24;;;;;;;5.85;2.53;;;17.50;99.90;;;;;;4995493;28;20029;-76
2023/08/05 08:03:53;;;;;;;7.97;2.75;;;17.40;99.90;;;;;;5023951;28;20038;-76
2023/08/05 08:06:20;;;;;;;6.65;2.92;;;17.50;99.90;;;;;;5007082;28;20041;-76
2023/08/05 08:08:46;;;;;;;6.55;2.42;;;17.50;99.90;;;;;;5034186;28;20045;-76
2023/08/05 08:11:12;;;;;;;8.52;2.65;;;17.60;99.90;;;;;;5026882;28;20555;-77
2023/08/05 08:13:39;;;;;;;6.55;2.55;;;17.70;99.90;;;;;;5026043;28;20079;-77
2023/08/05 08:16:05;;;;;;;5.85;2.60;;;17.70;99.90;;;;;;5027617;28;20516;-76
2023/08/05 08:18:30;;;;;;;6.45;2.40;;;17.70;99.90;;;;;;5026979;28;20030;-76
2023/08/05 08:20:56;;;;;;;7.40;2.35;;;17.80;99.90;;;;;;5034059;28;20065;-76
2023/08/05 08:23:22;;;;;;;7.97;2.15;;;18.00;99.90;;;;;;5011237;28;20033;-77
2023/08/05 08:25:47;;;;;;;6.07;2.42;;;18.00;99.90;;;;;;5006523;28;20070;-77
2023/08/05 08:28:13;;;;;;;5.38;2.33;;;17.90;99.90;;;;;;5017306;28;20146;-77
2023/08/05 08:30:39;;;;;;;5.13;2.35;;;17.90;99.90;;;;;;5035709;28;20042;-77
2023/08/05 08:33:04;;;;;;;7.78;2.90;;;17.90;99.90;;;;;;5027474;28;20045;-76
2023/08/05 08:35:30;;;;;;;9.10;2.92;;;17.80;99.90;;;;;;5033998;28;20076;-76
2023/08/05 08:37:56;;;;;;;6.03;2.50;;;17.80;99.90;;;;;;5033625;28;20045;-77
2023/08/05 08:40:22;;;;;;;5.50;2.30;;;17.70;99.90;;;;;;5033867;28;20047;-76
2023/08/05 08:42:50;;;;;;;5.63;2.47;;;17.70;99.90;;;;;;5026715;28;20517;-76
2023/08/05 08:45:17;;;;;;;5.32;2.13;;;17.70;99.90;;;;;;5002264;28;20045;-76
2023/08/05 08:47:45;;;;;;;5.97;2.13;;;17.90;99.90;;;;;;5033622;28;20444;-77
2023/08/05 08:50:11;;;;;;;4.95;2.00;;;18.10;99.90;;;;;;5016798;28;20448;-77
2023/08/05 08:52:40;;;;;;;7.60;2.45;;;18.20;99.90;;;;;;5032670;28;20444;-77
2023/08/05 08:55:08;;;;;;;6.22;2.80;;;18.20;99.90;;;;;;5018621;28;20042;-77
2023/08/05 08:57:34;;;;;;;4.93;2.03;;;18.30;99.90;;;;;;5034008;28;20493;-77
2023/08/05 09:00:00;;;;;;;5.97;2.33;;;18.40;99.90;;;;;;5033810;28;20033;-76
2023/08/05 09:02:26;;;;;;;6.68;2.25;;;18.50;99.90;;;;;;5033087;28;20041;-77
2023/08/05 09:04:53;;;;;;;5.65;2.60;;;18.60;99.90;;;;;;5028819;28;20033;-77
2023/08/05 09:07:21;;;;;;;6.22;2.40;;;18.40;99.90;;;;;;5012682;28;20045;-77
2023/08/05 09:09:47;;;;;;;5.30;2.25;;;18.30;99.90;;;;;;5019188;28;20065;-77
2023/08/05 09:12:14;;;;;;;7.45;2.25;;;18.30;99.90;;;;;;5041660;28;20044;-77
2023/08/05 09:14:40;;;;;;;5.50;2.30;;;18.20;99.90;;;;;;5010371;28;20040;-77
2023/08/05 09:17:06;;;;;;;4.80;2.40;;;18.20;99.90;;;;;;5014795;28;20041;-77
2023/08/05 09:19:32;;;;;;;4.70;1.90;;;18.30;99.90;;;;;;5026589;28;20034;-76
2023/08/05 09:22:01;;;;;;;6.63;2.50;;;18.40;99.90;;;;;;5027108;28;20034;-76
2023/08/05 09:24:27;;;;;;;5.25;2.25;;;18.50;99.90;;;;;;5030341;28;20034;-76
2023/08/05 09:26:57;;;;;;;6.63;2.20;;;18.60;99.90;;;;;;5030303;28;20425;-76
2023/08/05 09:29:24;;;;;;;4.55;2.10;;;18.70;99.90;;;;;;5014782;28;20124;-77
2023/08/05 09:32:01;;;;;;;4.70;2.15;;;19.10;99.90;;;;;;5031773;28;20087;-77
2023/08/05 09:34:38;;;;;;;3.88;1.95;;;19.40;99.90;;;;;;5022314;28;20037;-77
2023/08/05 09:37:05;;;;;;;4.72;2.03;;;19.50;99.90;;;;;;5028165;28;20490;-76
2023/08/05 09:39:50;;;;;;;2.97;1.40;;;19.60;99.90;;;;;;5031232;28;20033;-76
2023/08/05 09:42:21;;;;;;;4.93;1.75;;;19.70;99.90;;;;;;5013685;28;20071;-77
2023/08/05 09:44:48;;;;;;;3.75;1.90;;;19.70;99.90;;;;;;5011757;28;20029;-77
2023/08/05 09:47:21;;;;;;;4.68;1.90;;;19.70;99.90;;;;;;5027784;28;20147;-76
2023/08/05 09:49:51;;;;;;;4.50;2.00;;;19.80;99.90;;;;;;5031551;28;20402;-77
2023/08/05 09:52:24;;;;;;;5.90;2.00;;;20.10;99.90;;;;;;5008174;28;20497;-77
2023/08/05 09:55:12;;;;;;;4.95;2.20;;;20.10;99.90;;;;;;5016802;28;20045;-77
2023/08/05 09:57:38;;;;;;;4.32;1.60;;;19.80;99.90;;;;;;5030525;28;20033;-77
2023/08/05 10:00:08;;;;;;;5.13;1.67;;;19.80;99.90;;;;;;5010918;28;20053;-77
2023/08/05 10:02:35;;;;;;;4.65;1.80;;;19.70;99.90;;;;;;5028620;28;20424;-76
2023/08/05 10:05:02;;;;;;;6.13;2.28;;;19.60;99.90;;;;;;5031752;28;20038;-76
2023/08/05 10:07:28;;;;;;;7.53;2.13;;;19.50;99.90;;;;;;5030344;28;20148;-76
2023/08/05 10:09:54;;;;;;;4.07;2.03;;;19.40;99.90;;;;;;5044051;28;20051;-76
2023/08/05 10:12:27;;;;;;;4.85;2.03;;;19.30;99.90;;;;;;5004417;28;20469;-77
2023/08/05 10:14:56;;;;;;;6.00;2.20;;;19.40;99.90;;;;;;5030451;28;20033;-76
2023/08/05 10:17:22;;;;;;;6.45;2.30;;;19.60;99.90;;;;;;5014260;28;20037;-76
2023/08/05 10:19:50;;;;;;;4.95;2.20;;;19.70;99.90;;;;;;5026277;28;20045;-75
2023/08/05 10:22:22;;;;;;;5.75;2.30;;;19.80;99.90;;;;;;5013878;28;20431;-78
2023/08/05 10:24:56;;;;;;;5.38;2.03;;;19.80;99.90;;;;;;5022974;28;20072;-77
2023/08/05 10:27:43;;;;;;;4.70;2.20;;;20.00;99.90;;;;;;5020455;28;20507;-77
2023/08/05 10:30:09;;;;;;;6.03;2.20;;;19.80;99.90;;;;;;5023215;28;20048;-77
2023/08/05 10:32:35;;;;;;;5.85;2.20;;;19.90;99.90;;;;;;4996677;28;20092;-77
2023/08/05 10:35:23;;;;;;;3.10;1.80;;;20.00;99.90;;;;;;5024911;28;20053;-77
2023/08/05 10:37:49;;;;;;;3.25;1.67;;;20.20;99.90;;;;;;5023479;28;20037;-77
2023/08/05 10:40:37;;;;;;;5.13;2.08;;;20.20;99.90;;;;;;5029243;28;20037;-77
2023/08/05 10:43:04;;;;;;;6.00;2.28;;;20.00;99.90;;;;;;5020296;28;20045;-77
2023/08/05 10:45:29;;;;;;;4.63;1.90;;;20.10;99.90;;;;;;5012154;28;20380;-77
2023/08/05 10:47:55;;;;;;;5.13;1.90;;;20.10;99.90;;;;;;5031093;28;20040;-77
2023/08/05 10:50:21;;;;;;;4.13;2.20;;;20.20;99.90;;;;;;5029894;28;20057;-77
2023/08/05 10:52:49;;;;;;;3.85;1.60;;;20.20;99.90;;;;;;5004166;28;20045;-77
2023/08/05 10:55:14;;;;;;;3.58;1.90;;;20.20;99.90;;;;;;5031136;28;20095;-77
2023/08/05 10:57:40;;;;;;;4.45;2.20;;;20.40;99.90;;;;;;5031145;28;20436;-77
2023/08/05 11:00:11;;;;;;;3.90;1.90;;;20.40;99.90;;;;;;5013866;28;20051;-78
2023/08/05 11:02:37;;;;;;;6.13;2.05;;;20.30;99.90;;;;;;5020887;28;20068;-79
2023/08/05 11:05:09;;;;;;;4.47;2.00;;;20.40;99.90;;;;;;5014539;28;20456;-78
2023/08/05 11:07:39;;;;;;;;;;;20.40;99.90;;;;;;5010131;28;20041;-78
2023/08/05 11:10:06;;;;;;;4.93;2.00;;;20.30;99.90;;;;;;4995552;28;19917;-78
2023/08/05 11:12:32;;;;;;;5.22;2.40;;;20.30;99.90;;;;;;5011497;28;20125;-77
2023/08/05 11:14:59;;;;;;;4.85;1.60;;;20.30;99.90;;;;;;5021452;28;20117;-78
2023/08/05 11:17:25;;;;;;;4.38;2.17;;;20.40;99.90;;;;;;5025941;28;20052;-77
2023/08/05 11:19:58;;;;;;;5.45;2.20;;;20.40;99.90;;;;;;5027490;28;20033;-77
2023/08/05 11:22:29;;;;;;;4.85;2.08;;;20.30;99.90;;;;;;5031294;28;20121;-77
2023/08/05 11:25:03;;;;;;;6.07;2.20;;;20.30;99.90;;;;;;5004936;28;20044;-73
2023/08/05 11:27:33;;;;;;;5.82;1.83;;;20.30;99.90;;;;;;5010158;28;20045;-76
2023/08/05 11:30:09;;;;;;;3.53;1.60;;;20.40;99.90;;;;;;5030828;28;20057;-76
2023/08/05 11:32:57;;;;;;;5.68;2.50;;;20.40;99.90;;;;;;5012792;28;20034;-76
2023/08/05 11:35:24;;;;;;;4.95;2.10;;;20.30;99.90;;;;;;5018611;28;20042;-76
2023/08/05 11:37:50;;;;;;;7.47;2.88;;;20.10;99.90;;;;;;5010285;28;20060;-76
2023/08/05 11:40:15;;;;;;;5.22;2.30;;;20.30;99.90;;;;;;5011332;28;20042;-76
2023/08/05 11:42:41;;;;;;;4.38;2.20;;;20.30;99.90;;;;;;5015571;28;20087;-77
2023/08/05 11:45:12;;;;;;;6.07;2.42;;;20.20;99.90;;;;;;5034669;28;20090;-76
2023/08/05 11:47:39;;;;;;;7.15;2.95;;;20.10;99.90;;;;;;5022234;28;20038;-76
2023/08/05 11:50:06;;;;;;;6.00;2.70;;;20.00;99.90;;;;;;5015553;28;20091;-76
2023/08/05 11:52:31;;;;;;;3.05;1.80;;;19.90;99.90;;;;;;5011624;28;20073;-77
2023/08/05 11:54:58;;;;;;;4.60;2.58;;;20.00;99.90;;;;;;5027739;28;20064;-76
2023/08/05 11:57:24;;;;;;;5.78;2.17;;;20.00;99.90;;;;;;5015071;28;20060;-76
2023/08/05 11:59:55;;;;;;;7.10;3.40;;;20.10;99.90;;;;;;5030016;28;20107;-77
2023/08/05 12:02:22;;;;;;;5.63;2.78;;;20.20;99.90;;;;;;5017896;28;20037;-77
2023/08/05 12:04:56;;;;;;;6.53;3.08;;;20.10;99.90;;;;;;5016302;28;20033;-76
2023/08/05 12:07:22;;;;;;;6.18;3.33;;;20.10;99.90;;;;;;5017001;28;20033;-77
2023/08/05 12:10:08;;;;;;;6.68;3.65;;;20.30;99.90;;;;;;5012195;28;20044;-76
2023/08/05 12:12:34;;;;;;;7.00;3.50;;;20.20;99.90;;;;;;5028594;28;20041;-76
2023/08/05 12:15:14;;;;;;;7.95;3.45;;;20.10;99.90;;;;;;5033463;28;20045;-77
2023/08/05 12:17:51;;;;;;;6.50;4.43;;;20.20;99.90;;;;;;5033606;28;20432;-77
2023/08/05 12:20:19;;;;;;;7.95;3.92;;;20.10;99.90;;;;;;5006615;28;20033;-81
2023/08/05 12:22:45;;;;;;;9.27;5.10;;;20.10;99.90;;;;;;5024768;28;20390;-81
2023/08/05 12:25:11;;;;;;;8.82;5.05;;;19.90;99.90;;;;;;5034728;28;20041;-81
2023/08/05 12:27:37;;;;;;;7.35;4.60;;;19.80;99.90;;;;;;5017875;28;20054;-81
2023/08/05 12:30:05;;;;;;;9.80;6.00;;;19.90;99.90;;;;;;5024918;28;20132;-76
2023/08/05 12:32:30;;;;;;;7.90;5.18;;;19.90;99.90;;;;;;5024902;28;20468;-78
2023/08/05 12:34:56;;;;;;;9.77;5.82;;;19.80;99.90;;;;;;5017492;28;20128;-76
2023/08/05 12:37:22;;;;;;;8.55;4.75;;;19.70;99.90;;;;;;5034673;28;20038;-82
2023/08/05 12:39:47;;;;;;;11.02;6.80;;;19.70;99.90;;;;;;5033186;28;20033;-88
2023/08/05 12:42:13;;;;;;;11.65;6.82;;;19.70;99.90;;;;;;5017709;28;20041;-80
2023/08/05 12:44:38;;;;;;;12.40;8.20;;;19.70;99.90;;;;;;5021638;28;20038;-82